KAMG/AMG METAR and TAF weather

Enter ICAO airport designator
Station Type Date Time Source
KAMG METAR 2020/08/11 16:53 UTC NOAA

KAMG 111653Z AUTO 36004KT 10SM CLR 31/22 A3002 RMK AO2 SLP164 T03110222 $


Station Type Date Time Source
KAMG Decoded METAR 2020/08/11 16:53 UTC NOAA

ALMA BACON COUNTY AIRPORT, GA, United States (KAMG) 31-32N 82-30W 59M
Aug 11, 2020 - 12:53 PM EDT / 2020.08.11 1653 UTC
Wind: from the N (360 degrees) at 5 MPH (4 KT):0
Visibility: 10 mile(s):0
Sky conditions: clear
Temperature: 88.0 F (31.1 C)
Heat index: 94.6 F (34.8 C):1
Dew Point: 72.0 F (22.2 C)
Relative Humidity: 59%
Pressure (altimeter): 30.02 in. Hg (1016 hPa)
ob: KAMG 111653Z AUTO 36004KT 10SM CLR 31/22 A3002 RMK AO2 SLP164 T03110222
cycle: 17

Station Type Date Time Source
KAMG TAF UTC NOAA

Error!

Example: see airport list